createdAt,value
2023-03-28T00:24:15.259Z,23.27
2023-03-28T00:25:15.285Z,23.28
2023-03-28T00:26:15.329Z,23.28
2023-03-28T00:27:15.359Z,23.28
2023-03-28T00:28:15.368Z,23.28
2023-03-28T00:29:15.372Z,23.29
2023-03-28T00:30:15.421Z,23.29
2023-03-28T00:31:15.523Z,23.30
2023-03-28T00:32:15.480Z,23.29
2023-03-28T00:33:15.495Z,23.30
2023-03-28T00:34:15.511Z,23.29
2023-03-28T00:35:15.548Z,23.29
2023-03-28T00:41:15.570Z,23.30
2023-03-28T00:42:15.593Z,23.30
2023-03-28T00:43:15.594Z,23.31
2023-03-28T00:44:15.669Z,23.31
2023-03-28T00:45:15.663Z,23.31
2023-03-28T00:46:15.901Z,23.31
2023-03-28T00:47:15.726Z,23.31
2023-03-28T00:48:15.840Z,23.31
2023-03-28T00:49:15.749Z,23.31
2023-03-28T00:50:15.768Z,23.31
2023-03-28T00:51:15.784Z,23.30
2023-03-28T00:53:15.769Z,23.31
2023-03-28T00:54:15.790Z,23.32
2023-03-28T00:55:15.804Z,23.31
2023-03-28T00:57:15.841Z,23.31
2023-03-28T00:59:15.812Z,23.32
2023-03-28T01:00:15.837Z,23.31
2023-03-28T01:03:16.009Z,23.32
2023-03-28T01:04:15.868Z,23.32
2023-03-28T01:07:15.810Z,23.32
2023-03-28T01:08:15.864Z,23.31
2023-03-28T01:27:15.933Z,23.33
2023-03-28T01:38:16.064Z,23.33
2023-03-28T01:39:16.071Z,23.33
2023-03-28T01:40:16.095Z,23.33
2023-03-28T01:41:16.112Z,23.33
2023-03-28T01:42:16.202Z,23.34
2023-03-28T01:43:16.167Z,23.33
2023-03-28T01:45:16.187Z,23.33
2023-03-28T01:46:16.267Z,23.33
2023-03-28T02:03:16.512Z,23.34
2023-03-28T02:04:20.225Z,23.34
2023-03-28T02:06:16.433Z,23.33
2023-03-28T02:07:16.406Z,23.35
2023-03-28T02:08:16.412Z,23.35
2023-03-28T02:12:16.352Z,23.35
2023-03-28T02:13:16.356Z,23.35
2023-03-28T02:19:16.333Z,23.35
2023-03-28T02:25:16.230Z,23.34
2023-03-28T02:27:16.187Z,23.34
2023-03-28T02:28:16.207Z,23.34
2023-03-28T02:30:16.173Z,23.35
2023-03-28T02:31:16.175Z,23.35
2023-03-28T02:39:16.064Z,23.33
2023-03-28T02:45:16.012Z,23.30
2023-03-28T02:46:16.099Z,23.26
2023-03-28T02:47:16.042Z,23.25
2023-03-28T02:50:16.087Z,23.10
2023-03-28T02:51:16.153Z,23.06
2023-03-28T02:52:16.156Z,23.06
2023-03-28T02:53:16.200Z,23.06
2023-03-28T02:54:16.198Z,23.06
2023-03-28T02:55:16.271Z,23.06
2023-03-28T02:56:16.417Z,23.07
2023-03-28T02:57:16.400Z,23.08
2023-03-28T02:58:16.322Z,23.09
2023-03-28T02:59:16.351Z,23.11
2023-03-28T03:08:16.568Z,23.19
2023-03-28T03:09:16.588Z,23.20
2023-03-28T03:10:16.606Z,23.21
2023-03-28T03:11:16.615Z,23.22
2023-03-28T03:12:16.631Z,23.23
2023-03-28T03:13:16.642Z,23.23
2023-03-28T03:14:16.737Z,23.23
2023-03-28T03:22:20.776Z,23.29
2023-03-28T03:26:16.731Z,23.22
2023-03-28T03:34:16.644Z,23.10
2023-03-28T03:35:16.639Z,23.11
2023-03-28T03:41:16.591Z,23.13
2023-03-28T03:42:16.630Z,23.13
2023-03-28T03:43:16.603Z,23.12
2023-03-28T03:49:16.556Z,23.11
2023-03-28T03:50:16.540Z,23.11
2023-03-28T03:51:16.553Z,23.13
2023-03-28T04:03:24.421Z,23.19
2023-03-28T04:07:16.807Z,23.22
2023-03-28T04:09:16.729Z,23.22
2023-03-28T04:10:16.753Z,23.23
2023-03-28T04:21:16.602Z,23.25
2023-03-28T04:22:16.593Z,23.26
2023-03-28T04:23:16.594Z,23.27
2023-03-28T04:24:16.599Z,23.27
2023-03-28T04:25:16.606Z,23.28
2023-03-28T04:26:16.638Z,23.28
2023-03-28T04:27:16.672Z,23.29
2023-03-28T04:32:16.724Z,23.33
2023-03-28T04:40:16.814Z,23.38
2023-03-28T04:45:18.234Z,23.41
2023-03-28T04:46:16.894Z,23.41
2023-03-28T04:52:16.807Z,23.44
2023-03-28T04:53:16.829Z,23.45
2023-03-28T04:57:16.792Z,23.46
2023-03-28T04:58:16.792Z,23.47
2023-03-28T04:59:16.812Z,23.47
2023-03-28T05:01:16.800Z,23.48
2023-03-28T05:07:16.679Z,23.50
2023-03-28T05:11:16.599Z,23.52
2023-03-28T05:13:16.592Z,23.53
2023-03-28T05:15:21.409Z,23.53
2023-03-28T05:16:17.581Z,23.53
2023-03-28T05:17:16.528Z,23.54
2023-03-28T05:20:16.437Z,23.55
2023-03-28T05:21:16.456Z,23.55
2023-03-28T05:23:16.419Z,23.56
2023-03-28T05:29:16.287Z,23.57
2023-03-28T05:31:16.277Z,23.57
2023-03-28T05:35:16.185Z,23.58
2023-03-28T05:38:16.121Z,23.60
2023-03-28T05:39:16.120Z,23.59
2023-03-28T05:40:16.089Z,23.59
2023-03-28T05:41:16.148Z,23.56
2023-03-28T05:48:34.997Z,23.27
2023-03-28T05:49:35.011Z,23.30
2023-03-28T05:51:35.030Z,23.33
2023-03-28T05:52:35.016Z,23.30
2023-03-28T05:53:35.041Z,23.29
2023-03-28T05:56:35.112Z,23.36
2023-03-28T06:00:35.019Z,23.42
2023-03-28T06:01:35.014Z,23.44
2023-03-28T06:02:35.050Z,23.45
2023-03-28T06:04:35.059Z,23.49
2023-03-28T06:06:34.991Z,23.52
2023-03-28T06:07:42.171Z,23.54
2023-03-28T06:08:35.996Z,23.55
2023-03-28T06:09:35.008Z,23.57
2023-03-28T06:10:35.022Z,23.58
2023-03-28T06:12:35.014Z,23.60
2023-03-28T06:16:35.021Z,23.65
2023-03-28T06:17:35.082Z,23.65
2023-03-28T06:18:35.101Z,23.67
2023-03-28T06:19:35.183Z,23.67
2023-03-28T06:20:35.179Z,23.68
2023-03-28T06:21:35.276Z,23.70
2023-03-28T06:22:35.673Z,23.70
2023-03-28T06:23:35.375Z,23.71
2023-03-28T06:24:35.406Z,23.71
2023-03-28T06:25:35.505Z,23.72
2023-03-28T06:26:35.568Z,23.72
2023-03-28T06:27:35.680Z,23.73
2023-03-28T06:30:35.731Z,23.75
2023-03-28T06:31:35.814Z,23.74
2023-03-28T06:32:36.222Z,23.76
2023-03-28T06:33:35.928Z,23.76
2023-03-28T06:34:35.942Z,23.75
2023-03-28T06:35:35.988Z,23.74
2023-03-28T06:36:36.043Z,23.70
2023-03-28T06:37:36.202Z,23.70
2023-03-28T06:38:36.143Z,23.70
2023-03-28T06:39:36.177Z,23.70
2023-03-28T06:40:36.205Z,23.70
2023-03-28T06:41:36.277Z,23.71
2023-03-28T06:42:36.352Z,23.73
2023-03-28T06:43:36.410Z,23.76
2023-03-28T06:44:36.441Z,23.78
2023-03-28T06:45:36.511Z,23.80
2023-03-28T06:46:36.593Z,23.83
2023-03-28T06:47:36.610Z,23.84
2023-03-28T06:48:36.737Z,23.87
2023-03-28T06:49:36.680Z,23.90
2023-03-28T06:51:36.765Z,23.95
2023-03-28T06:52:36.841Z,23.97
2023-03-28T06:53:36.838Z,24.00
2023-03-28T06:54:36.900Z,24.02
2023-03-28T06:55:36.900Z,24.05
2023-03-28T06:56:37.000Z,24.08
2023-03-28T06:57:37.017Z,24.11
2023-03-28T06:58:37.030Z,24.13
2023-03-28T06:59:37.062Z,24.14
2023-03-28T07:00:37.085Z,24.16
2023-03-28T07:01:37.132Z,24.18
2023-03-28T07:02:37.196Z,24.20
2023-03-28T07:03:37.250Z,24.22
2023-03-28T07:04:37.199Z,24.24
2023-03-28T07:05:37.276Z,24.25
2023-03-28T07:06:37.270Z,24.26
2023-03-28T07:07:37.315Z,24.28
2023-03-28T07:08:37.320Z,24.29
2023-03-28T07:09:37.368Z,24.30
2023-03-28T07:10:37.411Z,24.31
2023-03-28T07:11:37.411Z,24.32
2023-03-28T07:12:37.476Z,24.33
2023-03-28T07:13:37.482Z,24.34
2023-03-28T07:16:37.577Z,24.37
2023-03-28T07:17:37.597Z,24.38
2023-03-28T07:18:37.576Z,24.39
2023-03-28T07:19:37.638Z,24.41
2023-03-28T07:20:37.620Z,24.42
2023-03-28T07:21:37.633Z,24.43
2023-03-28T07:22:37.725Z,24.44
2023-03-28T07:31:37.899Z,24.48
2023-03-28T07:32:49.945Z,24.48
2023-03-28T07:33:38.839Z,24.48
2023-03-28T07:35:37.862Z,24.47
2023-03-28T07:37:38.270Z,24.45
2023-03-28T07:38:37.716Z,24.43
2023-03-28T07:39:37.714Z,24.43
2023-03-28T07:40:37.781Z,24.42
2023-03-28T07:41:37.780Z,24.40
2023-03-28T07:42:38.244Z,24.40
2023-03-28T07:43:37.812Z,24.41
2023-03-28T07:44:39.115Z,24.41
2023-03-28T07:45:37.939Z,24.40
2023-03-28T07:46:37.920Z,24.40
2023-03-28T07:47:37.946Z,24.41
2023-03-28T07:48:37.955Z,24.41
2023-03-28T07:49:37.981Z,24.41
2023-03-28T07:50:37.988Z,24.42
2023-03-28T07:53:38.130Z,24.43
2023-03-28T07:59:38.228Z,24.45
2023-03-28T08:00:38.233Z,24.46
2023-03-28T08:02:38.299Z,24.46
2023-03-28T08:03:38.393Z,24.46
2023-03-28T08:05:38.307Z,24.46
2023-03-28T08:06:38.364Z,24.47
2023-03-28T08:07:38.342Z,24.47
2023-03-28T08:08:38.389Z,24.48
2023-03-28T08:09:38.423Z,24.48
2023-03-28T08:10:38.385Z,24.47
2023-03-28T08:11:38.446Z,24.48
2023-03-28T08:12:38.505Z,24.49
2023-03-28T08:15:38.546Z,24.49
2023-03-28T08:16:38.498Z,24.49
2023-03-28T08:17:38.775Z,24.49
2023-03-28T08:19:39.221Z,24.49
2023-03-28T08:24:38.620Z,24.49
2023-03-28T08:25:38.566Z,24.51
2023-03-28T08:26:38.605Z,24.51
2023-03-28T08:27:38.646Z,24.49
2023-03-28T08:28:38.611Z,24.51
2023-03-28T08:29:38.620Z,24.52
2023-03-28T08:30:38.673Z,24.52
2023-03-28T08:31:38.699Z,24.52
2023-03-28T08:32:38.765Z,24.51
2023-03-28T08:36:38.761Z,24.52
2023-03-28T08:37:39.283Z,24.52
2023-03-28T08:38:38.770Z,24.53
2023-03-28T08:39:38.812Z,24.53
2023-03-28T08:40:38.839Z,24.53
2023-03-28T08:53:39.047Z,24.55
2023-03-28T08:54:39.010Z,24.55
2023-03-28T08:56:40.817Z,24.57
2023-03-28T08:57:39.059Z,24.58
2023-03-28T08:58:39.041Z,24.61
2023-03-28T08:59:39.055Z,24.63
2023-03-28T09:01:39.114Z,24.68
2023-03-28T09:05:39.094Z,24.78
2023-03-28T09:08:39.073Z,24.85
2023-03-28T09:09:39.053Z,24.87
2023-03-28T09:10:39.065Z,24.89
2023-03-28T09:12:38.988Z,24.92
2023-03-28T09:17:38.940Z,24.97
2023-03-28T09:18:38.933Z,24.97
2023-03-28T09:19:47.858Z,24.97
2023-03-28T09:20:43.012Z,24.98
2023-03-28T09:21:38.920Z,24.98
2023-03-28T09:29:38.693Z,25.04
2023-03-28T09:31:38.658Z,25.05
2023-03-28T09:34:38.605Z,25.07
2023-03-28T09:35:38.550Z,25.08
2023-03-28T09:40:38.396Z,25.09
2023-03-28T09:41:38.371Z,25.08
2023-03-28T09:43:38.377Z,25.05
2023-03-28T09:44:51.066Z,25.05
2023-03-28T09:45:39.298Z,25.03
2023-03-28T09:50:38.148Z,25.06
2023-03-28T09:51:38.159Z,25.07
2023-03-28T09:53:38.858Z,25.10
2023-03-28T09:57:37.981Z,25.16
2023-03-28T09:58:37.936Z,25.18
2023-03-28T10:00:38.033Z,25.24
2023-03-28T10:01:38.809Z,25.26
2023-03-28T10:02:38.115Z,25.28
2023-03-28T10:03:38.126Z,25.29
2023-03-28T10:04:38.213Z,25.30
2023-03-28T10:05:38.231Z,25.31
2023-03-28T10:06:38.208Z,25.32
2023-03-28T10:07:38.222Z,25.32
2023-03-28T10:08:38.319Z,25.32
2023-03-28T10:11:38.372Z,25.31
2023-03-28T10:12:38.390Z,25.29
2023-03-28T10:13:38.821Z,25.28
2023-03-28T10:17:38.546Z,25.17
2023-03-28T10:18:38.538Z,25.16
2023-03-28T10:19:38.570Z,25.15
2023-03-28T10:20:38.619Z,25.15
2023-03-28T10:25:38.750Z,25.10
2023-03-28T10:26:38.750Z,25.09
2023-03-28T10:27:38.758Z,25.08
2023-03-28T10:28:38.759Z,25.06
2023-03-28T10:29:38.812Z,25.05
2023-03-28T10:30:38.782Z,25.05
2023-03-28T10:31:38.915Z,25.07
2023-03-28T10:32:38.858Z,25.08
2023-03-28T10:33:38.877Z,25.10
2023-03-28T10:34:38.878Z,25.11
2023-03-28T10:35:38.968Z,25.13
2023-03-28T10:36:38.873Z,25.14
2023-03-28T10:37:39.794Z,25.14
2023-03-28T10:41:38.869Z,24.73
2023-03-28T10:42:38.881Z,24.61
2023-03-28T10:43:38.941Z,24.46
2023-03-28T10:44:38.955Z,24.24
2023-03-28T10:45:39.012Z,24.01
2023-03-28T10:46:39.115Z,23.79
2023-03-28T10:47:39.141Z,23.59
2023-03-28T10:48:39.114Z,23.44
2023-03-28T10:49:39.309Z,23.08
2023-03-28T10:51:39.230Z,22.07
2023-03-28T10:52:39.297Z,22.00
2023-03-28T10:53:39.349Z,22.06
2023-03-28T10:58:39.553Z,22.14
2023-03-28T10:59:39.815Z,22.14
2023-03-28T11:00:39.656Z,22.17
2023-03-28T11:01:39.748Z,22.12
2023-03-28T11:02:39.845Z,22.09
2023-03-28T11:04:39.844Z,22.09
2023-03-28T11:05:39.849Z,22.09
2023-03-28T11:06:39.946Z,22.12
2023-03-28T11:07:39.957Z,22.15
2023-03-28T11:08:39.975Z,22.02
2023-03-28T11:09:39.992Z,21.96
2023-03-28T11:10:40.028Z,21.84
2023-03-28T11:11:40.060Z,21.81
2023-03-28T11:14:40.301Z,22.07
2023-03-28T11:15:40.225Z,22.21
2023-03-28T11:16:40.308Z,22.36
2023-03-28T11:17:40.402Z,22.50
2023-03-28T11:19:40.496Z,22.78
2023-03-28T11:20:40.520Z,22.89
2023-03-28T11:21:40.526Z,23.00
2023-03-28T11:22:40.510Z,23.12
2023-03-28T11:23:40.526Z,23.22
2023-03-28T11:24:40.806Z,23.31
2023-03-28T11:27:40.720Z,23.56
2023-03-28T11:28:40.771Z,23.64
2023-03-28T11:29:43.847Z,23.69
2023-03-28T11:32:40.810Z,23.82
2023-03-28T11:33:40.761Z,23.86
2023-03-28T11:34:42.733Z,23.89
2023-03-28T11:39:40.827Z,23.99
2023-03-28T11:41:40.661Z,24.02
2023-03-28T11:42:40.711Z,24.03
2023-03-28T11:43:40.769Z,24.04
2023-03-28T11:44:40.826Z,24.06
2023-03-28T11:45:50.960Z,24.08
2023-03-28T11:46:41.876Z,24.09
2023-03-28T11:52:40.798Z,24.13
2023-03-28T11:53:40.785Z,24.14
2023-03-28T11:59:40.820Z,24.18
2023-03-28T12:00:42.403Z,24.19
2023-03-28T12:01:40.914Z,24.20
2023-03-28T12:02:41.035Z,24.20
2023-03-28T12:03:41.022Z,24.20
2023-03-28T12:04:40.997Z,24.21
2023-03-28T12:05:41.030Z,24.22
2023-03-28T12:06:52.347Z,24.23
2023-03-28T12:07:42.039Z,24.22
2023-03-28T12:12:40.962Z,24.24
2023-03-28T12:13:45.832Z,24.24
2023-03-28T12:14:41.987Z,24.24
2023-03-28T12:17:40.924Z,24.27
2023-03-28T12:23:40.834Z,24.30
2023-03-28T12:24:40.815Z,24.30
2023-03-28T12:25:40.834Z,24.30
2023-03-28T12:31:40.888Z,24.33
2023-03-28T12:32:41.004Z,24.34
2023-03-28T12:33:41.008Z,24.35
2023-03-28T12:34:41.001Z,24.35
2023-03-28T12:35:41.051Z,24.35
2023-03-28T12:36:41.035Z,24.36
2023-03-28T12:37:41.073Z,24.36
2023-03-28T12:38:41.108Z,24.37
2023-03-28T12:39:41.147Z,24.37
2023-03-28T12:40:41.199Z,24.36
2023-03-28T12:41:41.208Z,24.37
2023-03-28T12:42:41.209Z,24.37
2023-03-28T12:43:41.260Z,24.38
2023-03-28T12:44:41.269Z,24.38
2023-03-28T12:45:41.360Z,24.38
2023-03-28T12:46:41.467Z,24.39
2023-03-28T12:47:41.392Z,24.37
2023-03-28T12:48:41.403Z,24.37
2023-03-28T12:49:41.412Z,24.34
2023-03-28T12:50:41.476Z,24.33
2023-03-28T12:56:41.648Z,24.29
2023-03-28T12:57:41.766Z,24.30
2023-03-28T12:58:41.685Z,24.30
2023-03-28T12:59:41.742Z,24.31
2023-03-28T13:00:41.775Z,24.32
2023-03-28T13:01:41.844Z,24.32
2023-03-28T13:02:41.873Z,24.33
2023-03-28T13:03:41.889Z,24.34
2023-03-28T13:04:41.918Z,24.35
2023-03-28T13:05:41.961Z,24.35
2023-03-28T13:06:41.966Z,24.36
2023-03-28T13:07:41.978Z,24.38
2023-03-28T13:08:42.054Z,24.38
2023-03-28T13:09:42.044Z,24.39
2023-03-28T13:10:42.124Z,24.39
2023-03-28T13:14:42.201Z,24.41
2023-03-28T13:23:42.365Z,24.44
2023-03-28T13:24:42.398Z,24.44
2023-03-28T13:25:42.394Z,24.45
2023-03-28T13:26:42.464Z,24.45
2023-03-28T13:30:42.512Z,24.45
2023-03-28T13:31:42.614Z,24.46
2023-03-28T13:32:42.603Z,24.45
2023-03-28T13:41:42.715Z,24.47
2023-03-28T13:42:42.753Z,24.47
2023-03-28T13:43:43.792Z,24.47
2023-03-28T13:44:42.837Z,24.47
2023-03-28T13:45:42.792Z,24.47
2023-03-28T13:46:42.871Z,24.47
2023-03-28T13:47:42.908Z,24.48
2023-03-28T13:48:42.948Z,24.48
2023-03-28T13:52:42.917Z,24.47
2023-03-28T13:53:47.885Z,24.48
2023-03-28T13:54:43.924Z,24.48
2023-03-28T13:55:42.900Z,24.49
2023-03-28T13:56:42.936Z,24.48
2023-03-28T14:01:42.886Z,24.49
2023-03-28T14:04:42.805Z,24.49
2023-03-28T14:11:42.696Z,24.50
2023-03-28T14:13:42.699Z,24.50
2023-03-28T14:14:42.694Z,24.51
2023-03-28T14:20:42.892Z,24.53
2023-03-28T14:28:42.867Z,24.46
2023-03-28T14:29:42.891Z,24.45
2023-03-28T14:30:42.916Z,24.44
2023-03-28T14:35:43.186Z,24.44
2023-03-28T14:36:43.086Z,24.44
2023-03-28T14:37:43.087Z,24.43
2023-03-28T14:38:43.124Z,24.44
2023-03-28T14:39:43.145Z,24.45
2023-03-28T14:40:43.191Z,24.45
2023-03-28T14:41:43.206Z,24.47
2023-03-28T14:42:43.260Z,24.49
2023-03-28T14:45:43.435Z,24.52
2023-03-28T14:46:43.303Z,24.53
2023-03-28T14:51:43.288Z,24.57
2023-03-28T14:53:43.306Z,24.59
2023-03-28T15:00:43.432Z,24.56
2023-03-28T15:06:10.763Z,24.59
2023-03-28T15:07:10.783Z,24.61
2023-03-28T15:08:10.730Z,24.61
2023-03-28T15:09:10.748Z,24.59
2023-03-28T15:10:10.672Z,24.57
2023-03-28T15:11:10.677Z,24.55
2023-03-28T15:12:10.616Z,24.54
2023-03-28T15:13:10.585Z,24.52
2023-03-28T15:14:10.548Z,24.51
2023-03-28T15:15:10.534Z,24.50
2023-03-28T15:16:10.554Z,24.48
2023-03-28T15:17:10.448Z,24.47
2023-03-28T15:18:10.503Z,24.47
2023-03-28T15:19:10.436Z,24.47
2023-03-28T15:20:10.348Z,24.45
2023-03-28T15:21:10.316Z,24.46
2023-03-28T15:22:10.289Z,24.45
2023-03-28T15:23:10.277Z,24.44
2023-03-28T15:24:10.263Z,24.44
2023-03-28T15:25:10.204Z,24.44
2023-03-28T15:26:10.202Z,24.43
2023-03-28T15:27:10.157Z,24.42
2023-03-28T15:28:10.142Z,24.41
2023-03-28T15:29:10.127Z,24.41
2023-03-28T15:30:10.130Z,24.40
2023-03-28T15:31:10.103Z,24.42
2023-03-28T15:32:10.028Z,24.42
2023-03-28T15:33:09.999Z,24.42
2023-03-28T15:34:09.994Z,24.41
2023-03-28T15:35:12.187Z,24.41
2023-03-28T15:36:10.180Z,24.40
2023-03-28T15:37:10.195Z,24.40
2023-03-28T15:38:10.213Z,24.41
2023-03-28T15:39:10.245Z,24.40
2023-03-28T15:40:10.245Z,24.40
2023-03-28T15:41:10.298Z,24.41
2023-03-28T15:42:10.317Z,24.42
2023-03-28T15:43:10.333Z,24.42
2023-03-28T15:44:10.362Z,24.41
2023-03-28T15:45:10.396Z,24.41
2023-03-28T15:46:10.461Z,24.41
2023-03-28T15:47:10.447Z,24.41
2023-03-28T15:48:10.555Z,24.41
2023-03-28T15:49:10.508Z,24.41
2023-03-28T15:50:10.543Z,24.40
2023-03-28T15:51:10.574Z,24.40
2023-03-28T15:52:10.566Z,24.40
2023-03-28T15:53:10.581Z,24.39
2023-03-28T15:54:20.204Z,24.40
2023-03-28T15:55:11.616Z,24.40
2023-03-28T15:56:10.599Z,24.40
2023-03-28T15:57:10.641Z,24.40
2023-03-28T15:58:10.523Z,24.38
2023-03-28T15:59:10.537Z,24.38
2023-03-28T16:00:10.521Z,24.37
2023-03-28T16:01:10.461Z,24.37
2023-03-28T16:02:10.478Z,24.37
2023-03-28T16:03:10.531Z,24.37
2023-03-28T16:04:10.462Z,24.37
2023-03-28T16:05:10.391Z,24.37
2023-03-28T16:06:11.801Z,24.36
2023-03-28T16:07:10.420Z,24.36
2023-03-28T16:08:10.394Z,24.36
2023-03-28T16:09:10.438Z,24.35
2023-03-28T16:10:10.478Z,24.34
2023-03-28T16:11:10.500Z,24.34
2023-03-28T16:12:10.539Z,24.33
2023-03-28T16:13:10.572Z,24.33
2023-03-28T16:14:10.573Z,24.33
2023-03-28T16:15:10.619Z,24.32
2023-03-28T16:16:10.666Z,24.34
2023-03-28T16:17:10.675Z,24.33
2023-03-28T16:18:10.761Z,24.32
2023-03-28T16:19:10.721Z,24.30
2023-03-28T16:20:10.764Z,24.31
2023-03-28T16:21:10.858Z,24.30
2023-03-28T16:22:10.843Z,24.30
2023-03-28T16:23:10.854Z,24.31
2023-03-28T16:24:10.906Z,24.31
2023-03-28T16:25:10.918Z,24.32
2023-03-28T16:26:11.264Z,24.33
2023-03-28T16:27:10.993Z,24.32
2023-03-28T16:28:11.024Z,24.32
2023-03-28T16:29:11.226Z,24.32
2023-03-28T16:30:11.088Z,24.32
2023-03-28T16:31:11.149Z,24.32
2023-03-28T16:32:11.151Z,24.30
2023-03-28T16:33:11.289Z,24.28
2023-03-28T16:34:11.176Z,24.28
2023-03-28T16:35:11.232Z,24.28
2023-03-28T16:36:11.314Z,24.28
2023-03-28T16:37:11.299Z,24.27
2023-03-28T16:38:11.342Z,24.27
2023-03-28T16:39:11.401Z,24.26
2023-03-28T16:40:11.400Z,24.27
2023-03-28T16:41:11.466Z,24.28
2023-03-28T16:42:11.518Z,24.29
2023-03-28T16:43:11.507Z,24.30
2023-03-28T16:44:11.554Z,24.31
2023-03-28T16:45:11.605Z,24.32
2023-03-28T16:46:12.488Z,24.33
2023-03-28T16:47:11.676Z,24.33
2023-03-28T16:48:11.777Z,24.29
2023-03-28T16:49:11.705Z,24.30
2023-03-28T16:50:11.703Z,24.30
2023-03-28T16:51:11.760Z,24.30
2023-03-28T16:52:11.932Z,24.32
2023-03-28T16:53:11.838Z,24.32
2023-03-28T16:54:11.860Z,24.33
2023-03-28T16:55:11.881Z,24.32
2023-03-28T16:56:11.944Z,24.30
2023-03-28T16:57:11.994Z,24.29
2023-03-28T16:58:12.010Z,24.29
2023-03-28T16:59:12.016Z,24.29
2023-03-28T17:00:12.079Z,24.29
2023-03-28T17:01:12.166Z,24.31
2023-03-28T17:02:12.200Z,24.30
2023-03-28T17:03:12.290Z,24.29
2023-03-28T17:04:12.220Z,24.29
2023-03-28T17:05:12.254Z,24.28
2023-03-28T17:06:12.298Z,24.26
2023-03-28T17:07:12.304Z,24.24
2023-03-28T17:08:12.332Z,24.23
2023-03-28T17:09:12.374Z,24.22
2023-03-28T17:10:12.397Z,24.21
2023-03-28T17:11:12.429Z,24.20
2023-03-28T17:12:12.475Z,24.19
2023-03-28T17:13:12.493Z,24.18
2023-03-28T17:14:12.538Z,24.17
2023-03-28T17:15:12.580Z,24.17
2023-03-28T17:16:12.608Z,24.18
2023-03-28T17:17:12.650Z,24.16
2023-03-28T17:18:12.707Z,24.14
2023-03-28T17:19:12.717Z,24.13
2023-03-28T17:20:12.776Z,24.12
2023-03-28T17:21:12.793Z,24.11
2023-03-28T17:22:12.811Z,24.11
2023-03-28T17:23:12.872Z,24.10
2023-03-28T17:24:12.867Z,24.09
2023-03-28T17:25:12.911Z,24.08
2023-03-28T17:26:12.924Z,24.08
2023-03-28T17:27:12.951Z,24.08
2023-03-28T17:28:13.020Z,24.07
2023-03-28T17:29:13.038Z,24.07
2023-03-28T17:30:13.089Z,24.07
2023-03-28T17:31:13.243Z,24.06
2023-03-28T17:32:13.160Z,24.05
2023-03-28T17:33:13.128Z,24.06
2023-03-28T17:34:13.155Z,24.05
2023-03-28T17:35:13.174Z,24.05
2023-03-28T17:36:13.220Z,24.05
2023-03-28T17:37:13.264Z,24.04
2023-03-28T17:38:13.254Z,24.02
2023-03-28T17:39:13.283Z,24.02
2023-03-28T17:40:13.359Z,24.01
2023-03-28T17:41:13.380Z,24.01
2023-03-28T17:42:13.403Z,23.99
2023-03-28T17:43:13.438Z,24.00
2023-03-28T17:44:13.475Z,23.99
2023-03-28T17:45:13.494Z,23.99
2023-03-28T17:46:13.638Z,23.98
2023-03-28T17:47:13.636Z,23.98
2023-03-28T17:48:13.604Z,23.98
2023-03-28T17:49:14.792Z,23.98
2023-03-28T17:50:13.798Z,23.98
2023-03-28T17:51:13.846Z,23.97
2023-03-28T17:52:13.890Z,23.96
2023-03-28T17:53:13.891Z,23.96
2023-03-28T17:54:13.945Z,23.96
2023-03-28T17:55:14.048Z,23.95
2023-03-28T17:56:13.977Z,23.95
2023-03-28T17:57:14.052Z,23.95
2023-03-28T17:58:14.061Z,23.94
2023-03-28T17:59:14.133Z,23.95
2023-03-28T18:00:14.164Z,23.94
2023-03-28T18:01:14.188Z,23.93
2023-03-28T18:02:14.261Z,23.93
2023-03-28T18:03:14.331Z,23.93
2023-03-28T18:04:14.308Z,23.92
2023-03-28T18:05:14.312Z,23.91
2023-03-28T18:06:14.404Z,23.92
2023-03-28T18:07:16.614Z,23.91
2023-03-28T18:08:14.409Z,23.91
2023-03-28T18:09:14.346Z,23.91
2023-03-28T18:10:14.340Z,23.90
2023-03-28T18:11:14.327Z,23.91
2023-03-28T18:12:14.312Z,23.90
2023-03-28T18:13:14.279Z,23.89
2023-03-28T18:14:14.252Z,23.89
2023-03-28T18:15:14.218Z,23.88
2023-03-28T18:16:14.298Z,23.88
2023-03-28T18:17:14.189Z,23.87
2023-03-28T18:18:14.169Z,23.87
2023-03-28T18:19:14.139Z,23.87
2023-03-28T18:20:14.118Z,23.87
2023-03-28T18:21:14.107Z,23.87
2023-03-28T18:22:14.090Z,23.86
2023-03-28T18:23:14.062Z,23.87
2023-03-28T18:24:14.042Z,23.87
2023-03-28T18:25:14.026Z,23.84
2023-03-28T18:26:14.001Z,23.83
2023-03-28T18:27:13.967Z,23.82
2023-03-28T18:28:13.908Z,23.82
2023-03-28T18:29:13.908Z,23.81
2023-03-28T18:30:13.901Z,23.81
2023-03-28T18:31:13.966Z,23.82
2023-03-28T18:32:13.883Z,23.82
2023-03-28T18:33:13.809Z,23.82
2023-03-28T18:34:13.777Z,23.82
2023-03-28T18:35:13.782Z,23.82
2023-03-28T18:36:13.809Z,23.82
2023-03-28T18:37:13.738Z,23.83
2023-03-28T18:38:13.736Z,23.83
2023-03-28T18:39:13.682Z,23.83
2023-03-28T18:40:13.670Z,23.83
2023-03-28T18:41:13.648Z,23.83
2023-03-28T18:42:13.628Z,23.83
2023-03-28T18:43:13.591Z,23.83
2023-03-28T18:44:13.591Z,23.83
2023-03-28T18:45:13.555Z,23.83
2023-03-28T18:46:15.783Z,23.82
2023-03-28T18:47:13.544Z,23.83
2023-03-28T18:48:13.531Z,23.83
2023-03-28T18:49:13.442Z,23.83
2023-03-28T18:50:13.485Z,23.83
2023-03-28T18:51:13.427Z,23.83
2023-03-28T18:52:13.412Z,23.83
2023-03-28T18:53:13.387Z,23.82
2023-03-28T18:54:13.342Z,23.81
2023-03-28T18:55:13.357Z,23.82
2023-03-28T18:56:13.338Z,23.81
2023-03-28T18:57:13.329Z,23.81
2023-03-28T18:58:13.287Z,23.81
2023-03-28T18:59:13.268Z,23.80
2023-03-28T19:00:13.211Z,23.81
2023-03-28T19:01:13.215Z,23.81
2023-03-28T19:02:13.221Z,23.81
2023-03-28T19:03:13.278Z,23.81
2023-03-28T19:04:13.171Z,23.81
2023-03-28T19:05:13.104Z,23.80
2023-03-28T19:06:13.074Z,23.81
2023-03-28T19:07:13.036Z,23.81
2023-03-28T19:08:13.030Z,23.80
2023-03-28T19:09:13.017Z,23.79
2023-03-28T19:10:12.951Z,23.80
2023-03-28T19:11:12.948Z,23.79
2023-03-28T19:12:12.934Z,23.79
2023-03-28T19:13:12.930Z,23.80
2023-03-28T19:14:12.876Z,23.79
2023-03-28T19:15:12.881Z,23.79
2023-03-28T19:16:12.905Z,23.78
2023-03-28T19:17:12.845Z,23.79
2023-03-28T19:18:12.837Z,23.78
2023-03-28T19:19:12.759Z,23.79
2023-03-28T19:20:12.760Z,23.77
2023-03-28T19:21:12.729Z,23.78
2023-03-28T19:22:12.722Z,23.78
2023-03-28T19:23:12.696Z,23.78
2023-03-28T19:24:12.657Z,23.78
2023-03-28T19:25:12.659Z,23.77
2023-03-28T19:26:12.681Z,23.79
2023-03-28T19:27:12.587Z,23.77
2023-03-28T19:28:12.600Z,23.77
2023-03-28T19:29:12.637Z,23.78
2023-03-28T19:30:12.694Z,23.78
2023-03-28T19:31:12.782Z,23.78
2023-03-28T19:32:12.782Z,23.78
2023-03-28T19:33:12.805Z,23.77
2023-03-28T19:34:12.806Z,23.78
2023-03-28T19:35:12.837Z,23.78
2023-03-28T19:36:12.881Z,23.77
2023-03-28T19:37:12.961Z,23.77
2023-03-28T19:38:12.985Z,23.76
2023-03-28T19:39:13.010Z,23.77
2023-03-28T19:40:13.064Z,23.77
2023-03-28T19:41:15.164Z,23.77
2023-03-28T19:42:13.038Z,23.76
2023-03-28T19:43:13.051Z,23.76
2023-03-28T19:44:12.993Z,23.76
2023-03-28T19:45:12.994Z,23.77
2023-03-28T19:46:13.010Z,23.76
2023-03-28T19:47:12.963Z,23.76
2023-03-28T19:48:12.991Z,23.75
2023-03-28T19:49:12.906Z,23.76
2023-03-28T19:50:12.889Z,23.76
2023-03-28T19:51:12.884Z,23.76
2023-03-28T19:52:12.860Z,23.76
2023-03-28T19:53:12.843Z,23.76
2023-03-28T19:54:12.814Z,23.76
2023-03-28T19:55:12.816Z,23.75
2023-03-28T19:56:12.794Z,23.75
2023-03-28T19:57:12.791Z,23.76
2023-03-28T19:58:12.740Z,23.75
2023-03-28T19:59:12.755Z,23.76
2023-03-28T20:00:12.702Z,23.75
2023-03-28T20:01:12.690Z,23.75
2023-03-28T20:02:12.764Z,23.75
2023-03-28T20:03:12.691Z,23.75
2023-03-28T20:04:12.704Z,23.76
2023-03-28T20:05:12.653Z,23.75
2023-03-28T20:06:12.598Z,23.75
2023-03-28T20:07:12.598Z,23.75
2023-03-28T20:08:12.582Z,23.74
2023-03-28T20:09:12.580Z,23.74
2023-03-28T20:10:12.539Z,23.74
2023-03-28T20:11:12.546Z,23.73
2023-03-28T20:12:12.553Z,23.74
2023-03-28T20:13:12.519Z,23.74
2023-03-28T20:14:12.479Z,23.74
2023-03-28T20:15:12.461Z,23.74
2023-03-28T20:16:12.479Z,23.74
2023-03-28T20:17:12.428Z,23.73
2023-03-28T20:18:12.456Z,23.73
2023-03-28T20:19:12.399Z,23.74
2023-03-28T20:20:12.363Z,23.73
2023-03-28T20:21:12.340Z,23.73
2023-03-28T20:22:12.303Z,23.73
2023-03-28T20:23:12.331Z,23.73
2023-03-28T20:24:12.314Z,23.73